Current Conditions
Partly Cloudy
Conditions



Pressure
1021 (hPa) - 30.15 (inHG)
Visibility

9.7 (km) - 6.0 (miles)
Temperature
17  °C
Temperature
12  °C
Dewpoint
73  %
 Humidity
Wind Speed
13  km/h
7  kts
8  mph
3.6  m/s
Wind Direction
N
45°
E
90°
135°
S
180°
225°
W
270°
315°
 330°

North North
West
Airport Data
EHAM
Amsterdam Airport Schiphol
Metar :EHAM 240725Z 33007KT 300V360 9999 FEW020 17/12 Q1021 NOSIG
Wed 24th July 09:25 am
Raw Metar Info
Raw METAR is the most common format in the world for the transmission of observational weather data. It is highly standardized through the International Civil Aviation Organization (ICAO), which allows it to be understood throughout most of the world.
API Info
Data Provided by
https://www.checkwx.com/weather/EHAM

Aviation Weather providing METAR, TAF, AIRMET, SIGMET and OUTLOOK Weather Reports
© Info
CSS/SVG/PHP scripts were developed by weather34.com for use in the weather34 template © 2015-2024

Guide Info provided by Metar-Wikipedia